sensor_id;sensor_type;location;lat;lon;timestamp;P1;durP1;ratioP1;P2;durP2;ratioP2
15958;SDS011;8078;47.822;9.402;2024-02-23T00:01:36;1.80;;;1.37;;
15958;SDS011;8078;47.822;9.402;2024-02-23T00:04:01;1.20;;;1.20;;
15958;SDS011;8078;47.822;9.402;2024-02-23T00:06:27;1.10;;;1.10;;
15958;SDS011;8078;47.822;9.402;2024-02-23T00:08:53;1.20;;;1.20;;
15958;SDS011;8078;47.822;9.402;2024-02-23T00:11:20;1.37;;;1.30;;
15958;SDS011;8078;47.822;9.402;2024-02-23T00:13:46;1.10;;;1.10;;
15958;SDS011;8078;47.822;9.402;2024-02-23T00:16:12;1.53;;;1.20;;
15958;SDS011;8078;47.822;9.402;2024-02-23T00:18:38;1.43;;;1.33;;
15958;SDS011;8078;47.822;9.402;2024-02-23T00:21:03;2.10;;;1.30;;
15958;SDS011;8078;47.822;9.402;2024-02-23T00:23:29;1.37;;;1.30;;
15958;SDS011;8078;47.822;9.402;2024-02-23T00:25:55;1.57;;;1.47;;
15958;SDS011;8078;47.822;9.402;2024-02-23T00:28:21;1.60;;;1.50;;
15958;SDS011;8078;47.822;9.402;2024-02-23T00:30:46;2.60;;;1.90;;
15958;SDS011;8078;47.822;9.402;2024-02-23T00:33:12;2.00;;;1.90;;
15958;SDS011;8078;47.822;9.402;2024-02-23T00:35:38;1.77;;;1.50;;
15958;SDS011;8078;47.822;9.402;2024-02-23T00:38:03;1.90;;;1.80;;
15958;SDS011;8078;47.822;9.402;2024-02-23T00:40:29;1.67;;;1.57;;
15958;SDS011;8078;47.822;9.402;2024-02-23T00:42:55;3.37;;;1.80;;
15958;SDS011;8078;47.822;9.402;2024-02-23T00:45:20;1.87;;;1.77;;
15958;SDS011;8078;47.822;9.402;2024-02-23T00:47:46;1.57;;;1.47;;
15958;SDS011;8078;47.822;9.402;2024-02-23T00:50:12;1.40;;;1.40;;
15958;SDS011;8078;47.822;9.402;2024-02-23T00:52:38;2.60;;;1.40;;
15958;SDS011;8078;47.822;9.402;2024-02-23T00:55:04;1.40;;;1.40;;
15958;SDS011;8078;47.822;9.402;2024-02-23T00:57:30;1.20;;;1.20;;
15958;SDS011;8078;47.822;9.402;2024-02-23T00:59:56;1.53;;;1.20;;
15958;SDS011;8078;47.822;9.402;2024-02-23T01:02:22;1.30;;;1.20;;
15958;SDS011;8078;47.822;9.402;2024-02-23T01:04:48;1.60;;;1.30;;
15958;SDS011;8078;47.822;9.402;2024-02-23T01:07:13;2.10;;;1.33;;
15958;SDS011;8078;47.822;9.402;2024-02-23T01:09:39;2.10;;;1.30;;
15958;SDS011;8078;47.822;9.402;2024-02-23T01:12:04;1.27;;;1.27;;
15958;SDS011;8078;47.822;9.402;2024-02-23T01:14:30;1.07;;;1.07;;
15958;SDS011;8078;47.822;9.402;2024-02-23T01:16:56;1.47;;;1.37;;
15958;SDS011;8078;47.822;9.402;2024-02-23T01:19:22;1.37;;;1.27;;
15958;SDS011;8078;47.822;9.402;2024-02-23T01:21:48;1.10;;;1.10;;
15958;SDS011;8078;47.822;9.402;2024-02-23T01:24:20;1.33;;;1.20;;
15958;SDS011;8078;47.822;9.402;2024-02-23T01:26:46;1.10;;;1.10;;
15958;SDS011;8078;47.822;9.402;2024-02-23T01:29:11;1.40;;;1.30;;
15958;SDS011;8078;47.822;9.402;2024-02-23T01:31:37;1.50;;;1.40;;
15958;SDS011;8078;47.822;9.402;2024-02-23T01:34:03;1.13;;;1.13;;
15958;SDS011;8078;47.822;9.402;2024-02-23T01:36:28;1.20;;;1.20;;
15958;SDS011;8078;47.822;9.402;2024-02-23T01:38:54;1.47;;;1.37;;
15958;SDS011;8078;47.822;9.402;2024-02-23T01:41:20;1.27;;;1.27;;
15958;SDS011;8078;47.822;9.402;2024-02-23T01:43:45;1.37;;;1.27;;
15958;SDS011;8078;47.822;9.402;2024-02-23T01:46:11;1.20;;;1.20;;
15958;SDS011;8078;47.822;9.402;2024-02-23T01:48:36;1.23;;;1.20;;
15958;SDS011;8078;47.822;9.402;2024-02-23T01:51:02;2.93;;;1.30;;
15958;SDS011;8078;47.822;9.402;2024-02-23T01:53:28;1.30;;;1.30;;
15958;SDS011;8078;47.822;9.402;2024-02-23T01:55:54;1.37;;;1.37;;
15958;SDS011;8078;47.822;9.402;2024-02-23T01:58:20;1.10;;;1.10;;
15958;SDS011;8078;47.822;9.402;2024-02-23T02:00:46;1.20;;;1.20;;
15958;SDS011;8078;47.822;9.402;2024-02-23T02:03:12;1.17;;;1.17;;
15958;SDS011;8078;47.822;9.402;2024-02-23T02:05:37;1.20;;;1.20;;
15958;SDS011;8078;47.822;9.402;2024-02-23T02:08:03;1.40;;;1.30;;
15958;SDS011;8078;47.822;9.402;2024-02-23T02:10:30;1.40;;;1.30;;
15958;SDS011;8078;47.822;9.402;2024-02-23T02:13:01;1.27;;;1.27;;
15958;SDS011;8078;47.822;9.402;2024-02-23T02:15:28;1.20;;;1.20;;
15958;SDS011;8078;47.822;9.402;2024-02-23T02:17:53;1.37;;;1.37;;
15958;SDS011;8078;47.822;9.402;2024-02-23T02:20:19;1.33;;;1.33;;
15958;SDS011;8078;47.822;9.402;2024-02-23T02:22:49;1.30;;;1.30;;
15958;SDS011;8078;47.822;9.402;2024-02-23T02:25:15;1.20;;;1.20;;
15958;SDS011;8078;47.822;9.402;2024-02-23T02:27:41;1.37;;;1.30;;
15958;SDS011;8078;47.822;9.402;2024-02-23T02:30:07;1.40;;;1.30;;
15958;SDS011;8078;47.822;9.402;2024-02-23T02:32:33;1.03;;;1.03;;
15958;SDS011;8078;47.822;9.402;2024-02-23T02:35:00;1.30;;;1.30;;
15958;SDS011;8078;47.822;9.402;2024-02-23T02:37:26;1.10;;;1.10;;
15958;SDS011;8078;47.822;9.402;2024-02-23T02:39:52;1.23;;;1.23;;
15958;SDS011;8078;47.822;9.402;2024-02-23T02:42:17;1.30;;;1.30;;
15958;SDS011;8078;47.822;9.402;2024-02-23T02:44:43;1.37;;;1.30;;
15958;SDS011;8078;47.822;9.402;2024-02-23T02:47:08;2.90;;;1.20;;
15958;SDS011;8078;47.822;9.402;2024-02-23T02:49:34;1.10;;;1.10;;
15958;SDS011;8078;47.822;9.402;2024-02-23T02:51:59;1.20;;;1.20;;
15958;SDS011;8078;47.822;9.402;2024-02-23T02:54:25;1.40;;;1.33;;
15958;SDS011;8078;47.822;9.402;2024-02-23T02:56:50;1.30;;;1.30;;
15958;SDS011;8078;47.822;9.402;2024-02-23T02:59:19;1.20;;;1.20;;
15958;SDS011;8078;47.822;9.402;2024-02-23T03:01:45;1.10;;;1.10;;
15958;SDS011;8078;47.822;9.402;2024-02-23T03:04:12;1.30;;;1.30;;
15958;SDS011;8078;47.822;9.402;2024-02-23T03:06:37;1.20;;;1.20;;
15958;SDS011;8078;47.822;9.402;2024-02-23T03:09:03;1.13;;;1.13;;
15958;SDS011;8078;47.822;9.402;2024-02-23T03:11:30;1.30;;;1.30;;
15958;SDS011;8078;47.822;9.402;2024-02-23T03:13:55;3.90;;;1.43;;
15958;SDS011;8078;47.822;9.402;2024-02-23T03:16:21;1.40;;;1.37;;
15958;SDS011;8078;47.822;9.402;2024-02-23T03:18:48;1.30;;;1.30;;
15958;SDS011;8078;47.822;9.402;2024-02-23T03:21:14;1.50;;;1.40;;
15958;SDS011;8078;47.822;9.402;2024-02-23T03:23:40;1.40;;;1.30;;
15958;SDS011;8078;47.822;9.402;2024-02-23T03:26:09;1.60;;;1.57;;
15958;SDS011;8078;47.822;9.402;2024-02-23T03:28:34;1.40;;;1.37;;
15958;SDS011;8078;47.822;9.402;2024-02-23T03:31:00;2.17;;;1.70;;
15958;SDS011;8078;47.822;9.402;2024-02-23T03:33:26;1.80;;;1.70;;
15958;SDS011;8078;47.822;9.402;2024-02-23T03:35:51;2.93;;;1.70;;
15958;SDS011;8078;47.822;9.402;2024-02-23T03:38:17;1.47;;;1.40;;
15958;SDS011;8078;47.822;9.402;2024-02-23T03:40:43;1.50;;;1.40;;
15958;SDS011;8078;47.822;9.402;2024-02-23T03:43:08;1.70;;;1.60;;
15958;SDS011;8078;47.822;9.402;2024-02-23T03:45:34;2.57;;;1.60;;
15958;SDS011;8078;47.822;9.402;2024-02-23T03:48:00;2.40;;;1.93;;
15958;SDS011;8078;47.822;9.402;2024-02-23T03:50:27;1.80;;;1.70;;
15958;SDS011;8078;47.822;9.402;2024-02-23T03:52:53;3.27;;;1.80;;
15958;SDS011;8078;47.822;9.402;2024-02-23T03:55:18;1.93;;;1.80;;
15958;SDS011;8078;47.822;9.402;2024-02-23T03:57:44;2.10;;;1.50;;
15958;SDS011;8078;47.822;9.402;2024-02-23T04:00:09;2.07;;;1.47;;
15958;SDS011;8078;47.822;9.402;2024-02-23T04:02:35;2.60;;;1.80;;
15958;SDS011;8078;47.822;9.402;2024-02-23T04:05:01;1.70;;;1.60;;
15958;SDS011;8078;47.822;9.402;2024-02-23T04:07:27;2.37;;;1.47;;
15958;SDS011;8078;47.822;9.402;2024-02-23T04:09:52;1.63;;;1.53;;
15958;SDS011;8078;47.822;9.402;2024-02-23T04:12:20;2.37;;;1.67;;
15958;SDS011;8078;47.822;9.402;2024-02-23T04:14:46;4.47;;;1.80;;
15958;SDS011;8078;47.822;9.402;2024-02-23T04:17:11;3.77;;;1.60;;
15958;SDS011;8078;47.822;9.402;2024-02-23T04:19:37;1.60;;;1.50;;
15958;SDS011;8078;47.822;9.402;2024-02-23T04:22:03;4.00;;;1.93;;
15958;SDS011;8078;47.822;9.402;2024-02-23T04:24:31;3.53;;;1.77;;
15958;SDS011;8078;47.822;9.402;2024-02-23T04:26:56;2.30;;;1.70;;
15958;SDS011;8078;47.822;9.402;2024-02-23T04:29:22;3.13;;;2.00;;
15958;SDS011;8078;47.822;9.402;2024-02-23T04:31:47;2.60;;;1.87;;
15958;SDS011;8078;47.822;9.402;2024-02-23T04:34:14;2.27;;;1.73;;
15958;SDS011;8078;47.822;9.402;2024-02-23T04:36:41;5.10;;;1.80;;
15958;SDS011;8078;47.822;9.402;2024-02-23T04:39:08;1.80;;;1.70;;
15958;SDS011;8078;47.822;9.402;2024-02-23T04:41:34;1.67;;;1.57;;
15958;SDS011;8078;47.822;9.402;2024-02-23T04:44:00;2.07;;;1.70;;
15958;SDS011;8078;47.822;9.402;2024-02-23T04:46:26;2.43;;;1.80;;
15958;SDS011;8078;47.822;9.402;2024-02-23T04:48:52;4.53;;;2.33;;
15958;SDS011;8078;47.822;9.402;2024-02-23T04:51:17;3.43;;;2.00;;
15958;SDS011;8078;47.822;9.402;2024-02-23T04:53:44;4.37;;;1.70;;
15958;SDS011;8078;47.822;9.402;2024-02-23T04:56:09;2.10;;;1.73;;
15958;SDS011;8078;47.822;9.402;2024-02-23T04:58:35;2.03;;;1.50;;
15958;SDS011;8078;47.822;9.402;2024-02-23T05:01:02;3.70;;;1.73;;
15958;SDS011;8078;47.822;9.402;2024-02-23T05:03:28;2.53;;;2.33;;
15958;SDS011;8078;47.822;9.402;2024-02-23T05:05:54;2.90;;;2.13;;
15958;SDS011;8078;47.822;9.402;2024-02-23T05:08:20;1.97;;;1.60;;
15958;SDS011;8078;47.822;9.402;2024-02-23T05:10:46;2.27;;;1.90;;
15958;SDS011;8078;47.822;9.402;2024-02-23T05:13:12;3.87;;;2.07;;
15958;SDS011;8078;47.822;9.402;2024-02-23T05:15:38;6.63;;;2.27;;
15958;SDS011;8078;47.822;9.402;2024-02-23T05:18:03;3.53;;;1.87;;
15958;SDS011;8078;47.822;9.402;2024-02-23T05:20:29;2.10;;;1.90;;
15958;SDS011;8078;47.822;9.402;2024-02-23T05:22:55;3.93;;;2.20;;
15958;SDS011;8078;47.822;9.402;2024-02-23T05:25:20;2.13;;;1.97;;
15958;SDS011;8078;47.822;9.402;2024-02-23T05:27:46;2.73;;;1.80;;
15958;SDS011;8078;47.822;9.402;2024-02-23T05:30:12;2.77;;;2.13;;
15958;SDS011;8078;47.822;9.402;2024-02-23T05:32:38;1.90;;;1.80;;
15958;SDS011;8078;47.822;9.402;2024-02-23T05:35:03;2.60;;;2.00;;
15958;SDS011;8078;47.822;9.402;2024-02-23T05:37:29;2.07;;;1.70;;
15958;SDS011;8078;47.822;9.402;2024-02-23T05:39:55;2.67;;;2.47;;
15958;SDS011;8078;47.822;9.402;2024-02-23T05:42:20;2.60;;;2.03;;
15958;SDS011;8078;47.822;9.402;2024-02-23T05:44:46;2.47;;;1.77;;
15958;SDS011;8078;47.822;9.402;2024-02-23T05:47:13;2.10;;;1.90;;
15958;SDS011;8078;47.822;9.402;2024-02-23T05:49:39;3.40;;;1.80;;
15958;SDS011;8078;47.822;9.402;2024-02-23T05:52:05;2.43;;;1.80;;
15958;SDS011;8078;47.822;9.402;2024-02-23T05:54:30;2.27;;;1.97;;
15958;SDS011;8078;47.822;9.402;2024-02-23T05:56:56;5.73;;;1.63;;
15958;SDS011;8078;47.822;9.402;2024-02-23T05:59:22;1.90;;;1.60;;
15958;SDS011;8078;47.822;9.402;2024-02-23T06:01:47;4.53;;;2.27;;
15958;SDS011;8078;47.822;9.402;2024-02-23T06:04:13;4.17;;;1.63;;
15958;SDS011;8078;47.822;9.402;2024-02-23T06:06:41;1.73;;;1.63;;
15958;SDS011;8078;47.822;9.402;2024-02-23T06:09:08;1.93;;;1.50;;
15958;SDS011;8078;47.822;9.402;2024-02-23T06:11:34;2.03;;;1.73;;
15958;SDS011;8078;47.822;9.402;2024-02-23T06:14:00;1.80;;;1.67;;
15958;SDS011;8078;47.822;9.402;2024-02-23T06:16:25;2.27;;;1.53;;
15958;SDS011;8078;47.822;9.402;2024-02-23T06:18:51;4.37;;;1.93;;
15958;SDS011;8078;47.822;9.402;2024-02-23T06:21:17;3.37;;;1.70;;
15958;SDS011;8078;47.822;9.402;2024-02-23T06:23:43;2.40;;;1.60;;
15958;SDS011;8078;47.822;9.402;2024-02-23T06:26:09;4.00;;;2.13;;
15958;SDS011;8078;47.822;9.402;2024-02-23T06:28:36;5.03;;;1.97;;
15958;SDS011;8078;47.822;9.402;2024-02-23T06:31:04;3.63;;;2.20;;
15958;SDS011;8078;47.822;9.402;2024-02-23T06:33:33;3.60;;;1.83;;
15958;SDS011;8078;47.822;9.402;2024-02-23T06:35:58;2.10;;;1.80;;
15958;SDS011;8078;47.822;9.402;2024-02-23T06:38:24;2.87;;;1.60;;
15958;SDS011;8078;47.822;9.402;2024-02-23T06:40:50;5.17;;;1.93;;
15958;SDS011;8078;47.822;9.402;2024-02-23T06:43:16;2.10;;;1.80;;
15958;SDS011;8078;47.822;9.402;2024-02-23T06:45:41;3.73;;;1.97;;
15958;SDS011;8078;47.822;9.402;2024-02-23T06:48:07;2.20;;;1.70;;
15958;SDS011;8078;47.822;9.402;2024-02-23T06:50:33;3.53;;;2.10;;
15958;SDS011;8078;47.822;9.402;2024-02-23T06:53:00;2.97;;;1.70;;
15958;SDS011;8078;47.822;9.402;2024-02-23T06:55:25;3.80;;;1.60;;
15958;SDS011;8078;47.822;9.402;2024-02-23T06:57:51;3.90;;;1.90;;
15958;SDS011;8078;47.822;9.402;2024-02-23T07:00:16;1.90;;;1.80;;
15958;SDS011;8078;47.822;9.402;2024-02-23T07:02:42;4.83;;;1.90;;
15958;SDS011;8078;47.822;9.402;2024-02-23T07:05:08;2.03;;;1.73;;
15958;SDS011;8078;47.822;9.402;2024-02-23T07:07:34;1.90;;;1.80;;
15958;SDS011;8078;47.822;9.402;2024-02-23T07:10:00;1.97;;;1.83;;
15958;SDS011;8078;47.822;9.402;2024-02-23T07:12:26;2.17;;;1.70;;
15958;SDS011;8078;47.822;9.402;2024-02-23T07:14:53;5.77;;;1.80;;
15958;SDS011;8078;47.822;9.402;2024-02-23T07:17:19;3.70;;;1.90;;
15958;SDS011;8078;47.822;9.402;2024-02-23T07:19:45;1.80;;;1.70;;
15958;SDS011;8078;47.822;9.402;2024-02-23T07:22:12;2.83;;;1.77;;
15958;SDS011;8078;47.822;9.402;2024-02-23T07:24:41;5.83;;;1.83;;
15958;SDS011;8078;47.822;9.402;2024-02-23T07:27:07;3.43;;;1.97;;
15958;SDS011;8078;47.822;9.402;2024-02-23T07:29:33;4.27;;;1.80;;
15958;SDS011;8078;47.822;9.402;2024-02-23T07:31:58;4.03;;;1.83;;
15958;SDS011;8078;47.822;9.402;2024-02-23T07:34:24;3.67;;;1.70;;
15958;SDS011;8078;47.822;9.402;2024-02-23T07:36:53;4.30;;;2.37;;
15958;SDS011;8078;47.822;9.402;2024-02-23T07:39:19;5.33;;;1.67;;
15958;SDS011;8078;47.822;9.402;2024-02-23T07:41:45;3.07;;;1.80;;
15958;SDS011;8078;47.822;9.402;2024-02-23T07:44:11;8.43;;;1.87;;
15958;SDS011;8078;47.822;9.402;2024-02-23T07:46:37;7.93;;;1.80;;
15958;SDS011;8078;47.822;9.402;2024-02-23T07:49:03;3.93;;;1.93;;
15958;SDS011;8078;47.822;9.402;2024-02-23T07:51:29;3.53;;;2.10;;
15958;SDS011;8078;47.822;9.402;2024-02-23T07:53:54;4.30;;;1.97;;
15958;SDS011;8078;47.822;9.402;2024-02-23T07:56:20;1.90;;;1.67;;
15958;SDS011;8078;47.822;9.402;2024-02-23T07:58:46;2.80;;;2.47;;
15958;SDS011;8078;47.822;9.402;2024-02-23T08:01:12;3.70;;;2.17;;
15958;SDS011;8078;47.822;9.402;2024-02-23T08:03:39;4.83;;;2.33;;
15958;SDS011;8078;47.822;9.402;2024-02-23T08:06:05;6.30;;;1.73;;
15958;SDS011;8078;47.822;9.402;2024-02-23T08:08:31;11.20;;;1.90;;
15958;SDS011;8078;47.822;9.402;2024-02-23T08:11:00;4.33;;;1.67;;
15958;SDS011;8078;47.822;9.402;2024-02-23T08:13:26;3.73;;;1.90;;
15958;SDS011;8078;47.822;9.402;2024-02-23T08:15:52;2.77;;;1.80;;
15958;SDS011;8078;47.822;9.402;2024-02-23T08:18:17;4.30;;;1.87;;
15958;SDS011;8078;47.822;9.402;2024-02-23T08:20:43;3.73;;;2.00;;
15958;SDS011;8078;47.822;9.402;2024-02-23T08:23:08;3.73;;;2.03;;
15958;SDS011;8078;47.822;9.402;2024-02-23T08:25:34;2.60;;;2.03;;
15958;SDS011;8078;47.822;9.402;2024-02-23T08:28:01;4.50;;;2.07;;
15958;SDS011;8078;47.822;9.402;2024-02-23T08:30:26;2.83;;;1.80;;
15958;SDS011;8078;47.822;9.402;2024-02-23T08:32:52;7.07;;;1.80;;
15958;SDS011;8078;47.822;9.402;2024-02-23T08:35:17;5.93;;;1.70;;
15958;SDS011;8078;47.822;9.402;2024-02-23T08:37:43;5.67;;;2.17;;
15958;SDS011;8078;47.822;9.402;2024-02-23T08:40:09;2.10;;;2.00;;
15958;SDS011;8078;47.822;9.402;2024-02-23T08:42:35;4.03;;;2.17;;
15958;SDS011;8078;47.822;9.402;2024-02-23T08:45:01;3.43;;;2.17;;
15958;SDS011;8078;47.822;9.402;2024-02-23T08:47:27;2.80;;;1.83;;
15958;SDS011;8078;47.822;9.402;2024-02-23T08:49:57;4.40;;;2.10;;
15958;SDS011;8078;47.822;9.402;2024-02-23T08:52:23;2.00;;;1.90;;
15958;SDS011;8078;47.822;9.402;2024-02-23T08:54:48;2.27;;;2.03;;
15958;SDS011;8078;47.822;9.402;2024-02-23T08:57:14;3.13;;;2.00;;
15958;SDS011;8078;47.822;9.402;2024-02-23T08:59:44;5.73;;;2.00;;
15958;SDS011;8078;47.822;9.402;2024-02-23T09:02:10;4.40;;;1.90;;
15958;SDS011;8078;47.822;9.402;2024-02-23T09:04:35;4.37;;;2.17;;
15958;SDS011;8078;47.822;9.402;2024-02-23T09:07:01;4.30;;;2.43;;
15958;SDS011;8078;47.822;9.402;2024-02-23T09:09:27;6.23;;;3.50;;
15958;SDS011;8078;47.822;9.402;2024-02-23T09:11:53;7.70;;;4.30;;
15958;SDS011;8078;47.822;9.402;2024-02-23T09:14:18;8.17;;;4.40;;
15958;SDS011;8078;47.822;9.402;2024-02-23T09:16:44;6.27;;;4.43;;
15958;SDS011;8078;47.822;9.402;2024-02-23T09:19:11;9.83;;;5.27;;
15958;SDS011;8078;47.822;9.402;2024-02-23T09:21:37;2.67;;;2.30;;
15958;SDS011;8078;47.822;9.402;2024-02-23T09:24:03;4.53;;;2.57;;
15958;SDS011;8078;47.822;9.402;2024-02-23T09:26:29;4.30;;;2.50;;
15958;SDS011;8078;47.822;9.402;2024-02-23T09:28:54;7.17;;;4.23;;
15958;SDS011;8078;47.822;9.402;2024-02-23T09:31:20;6.30;;;2.60;;
15958;SDS011;8078;47.822;9.402;2024-02-23T09:33:45;2.53;;;2.30;;
15958;SDS011;8078;47.822;9.402;2024-02-23T09:36:11;5.63;;;3.77;;
15958;SDS011;8078;47.822;9.402;2024-02-23T09:38:37;6.27;;;2.70;;
15958;SDS011;8078;47.822;9.402;2024-02-23T09:41:03;3.97;;;2.40;;
15958;SDS011;8078;47.822;9.402;2024-02-23T09:43:29;4.30;;;2.70;;
15958;SDS011;8078;47.822;9.402;2024-02-23T09:45:57;3.03;;;2.40;;
15958;SDS011;8078;47.822;9.402;2024-02-23T09:48:24;3.47;;;2.80;;
15958;SDS011;8078;47.822;9.402;2024-02-23T09:50:51;7.60;;;3.13;;
15958;SDS011;8078;47.822;9.402;2024-02-23T09:53:17;5.03;;;3.30;;
15958;SDS011;8078;47.822;9.402;2024-02-23T09:55:45;4.70;;;2.83;;
15958;SDS011;8078;47.822;9.402;2024-02-23T09:58:13;3.17;;;2.83;;
15958;SDS011;8078;47.822;9.402;2024-02-23T10:00:42;3.60;;;2.40;;
15958;SDS011;8078;47.822;9.402;2024-02-23T10:03:08;4.47;;;3.00;;
15958;SDS011;8078;47.822;9.402;2024-02-23T10:05:34;3.87;;;2.87;;
15958;SDS011;8078;47.822;9.402;2024-02-23T10:07:59;6.70;;;3.00;;
15958;SDS011;8078;47.822;9.402;2024-02-23T10:10:34;4.70;;;3.07;;
15958;SDS011;8078;47.822;9.402;2024-02-23T10:13:01;3.20;;;2.90;;
15958;SDS011;8078;47.822;9.402;2024-02-23T10:15:29;4.50;;;2.90;;
15958;SDS011;8078;47.822;9.402;2024-02-23T10:17:55;6.10;;;3.07;;
15958;SDS011;8078;47.822;9.402;2024-02-23T10:20:21;6.33;;;3.77;;
15958;SDS011;8078;47.822;9.402;2024-02-23T10:22:47;8.70;;;3.87;;
15958;SDS011;8078;47.822;9.402;2024-02-23T10:25:12;7.30;;;3.53;;
15958;SDS011;8078;47.822;9.402;2024-02-23T10:27:40;4.37;;;3.57;;
15958;SDS011;8078;47.822;9.402;2024-02-23T10:30:07;7.73;;;3.90;;
15958;SDS011;8078;47.822;9.402;2024-02-23T10:32:36;6.23;;;3.30;;
15958;SDS011;8078;47.822;9.402;2024-02-23T10:35:04;7.50;;;3.83;;
15958;SDS011;8078;47.822;9.402;2024-02-23T10:37:35;5.80;;;3.43;;
15958;SDS011;8078;47.822;9.402;2024-02-23T10:40:01;3.90;;;3.23;;
15958;SDS011;8078;47.822;9.402;2024-02-23T10:42:30;5.63;;;3.50;;
15958;SDS011;8078;47.822;9.402;2024-02-23T10:44:59;5.83;;;3.30;;
15958;SDS011;8078;47.822;9.402;2024-02-23T10:47:26;4.83;;;3.20;;
15958;SDS011;8078;47.822;9.402;2024-02-23T10:49:53;3.47;;;3.07;;
15958;SDS011;8078;47.822;9.402;2024-02-23T10:52:19;7.73;;;4.20;;
15958;SDS011;8078;47.822;9.402;2024-02-23T10:54:48;3.90;;;3.50;;
15958;SDS011;8078;47.822;9.402;2024-02-23T10:57:15;8.10;;;4.00;;
15958;SDS011;8078;47.822;9.402;2024-02-23T10:59:44;6.60;;;3.30;;
15958;SDS011;8078;47.822;9.402;2024-02-23T11:02:14;6.20;;;3.43;;
15958;SDS011;8078;47.822;9.402;2024-02-23T11:04:48;3.30;;;3.00;;
15958;SDS011;8078;47.822;9.402;2024-02-23T11:07:15;4.33;;;2.70;;
15958;SDS011;8078;47.822;9.402;2024-02-23T11:09:48;3.13;;;2.70;;
15958;SDS011;8078;47.822;9.402;2024-02-23T11:12:23;5.57;;;2.90;;
15958;SDS011;8078;47.822;9.402;2024-02-23T11:14:50;3.73;;;2.70;;
15958;SDS011;8078;47.822;9.402;2024-02-23T11:17:19;2.87;;;2.57;;
15958;SDS011;8078;47.822;9.402;2024-02-23T11:19:46;3.13;;;2.70;;
15958;SDS011;8078;47.822;9.402;2024-02-23T11:22:15;4.07;;;2.47;;
15958;SDS011;8078;47.822;9.402;2024-02-23T11:25:00;4.97;;;2.30;;
15958;SDS011;8078;47.822;9.402;2024-02-23T11:27:32;3.20;;;2.17;;
15958;SDS011;8078;47.822;9.402;2024-02-23T11:29:59;5.67;;;2.40;;
15958;SDS011;8078;47.822;9.402;2024-02-23T11:32:35;2.63;;;2.13;;
15958;SDS011;8078;47.822;9.402;2024-02-23T11:35:06;3.73;;;2.60;;
15958;SDS011;8078;47.822;9.402;2024-02-23T11:37:32;4.63;;;2.27;;
15958;SDS011;8078;47.822;9.402;2024-02-23T11:40:08;2.20;;;2.00;;
15958;SDS011;8078;47.822;9.402;2024-02-23T11:42:35;2.03;;;1.73;;
15958;SDS011;8078;47.822;9.402;2024-02-23T11:45:02;2.60;;;2.00;;
15958;SDS011;8078;47.822;9.402;2024-02-23T11:47:28;2.73;;;2.03;;
15958;SDS011;8078;47.822;9.402;2024-02-23T11:49:54;2.73;;;1.80;;
15958;SDS011;8078;47.822;9.402;2024-02-23T11:52:20;5.13;;;2.00;;
15958;SDS011;8078;47.822;9.402;2024-02-23T11:54:46;2.73;;;1.90;;
15958;SDS011;8078;47.822;9.402;2024-02-23T11:57:12;6.10;;;2.10;;
15958;SDS011;8078;47.822;9.402;2024-02-23T11:59:39;2.43;;;2.20;;
15958;SDS011;8078;47.822;9.402;2024-02-23T12:02:06;5.53;;;2.13;;
15958;SDS011;8078;47.822;9.402;2024-02-23T12:04:32;3.50;;;1.93;;
15958;SDS011;8078;47.822;9.402;2024-02-23T12:06:58;6.57;;;2.03;;
15958;SDS011;8078;47.822;9.402;2024-02-23T12:09:24;2.17;;;1.73;;
15958;SDS011;8078;47.822;9.402;2024-02-23T12:11:50;1.83;;;1.60;;
15958;SDS011;8078;47.822;9.402;2024-02-23T12:14:16;3.03;;;1.80;;
15958;SDS011;8078;47.822;9.402;2024-02-23T12:16:42;5.73;;;1.90;;
15958;SDS011;8078;47.822;9.402;2024-02-23T12:19:08;4.97;;;1.87;;
15958;SDS011;8078;47.822;9.402;2024-02-23T12:21:34;5.00;;;1.63;;
15958;SDS011;8078;47.822;9.402;2024-02-23T12:24:06;5.67;;;1.80;;
15958;SDS011;8078;47.822;9.402;2024-02-23T12:26:32;3.10;;;1.50;;
15958;SDS011;8078;47.822;9.402;2024-02-23T12:29:02;3.17;;;1.63;;
15958;SDS011;8078;47.822;9.402;2024-02-23T12:31:28;2.60;;;1.50;;
15958;SDS011;8078;47.822;9.402;2024-02-23T12:33:54;3.50;;;1.70;;
15958;SDS011;8078;47.822;9.402;2024-02-23T12:36:22;4.67;;;1.60;;
15958;SDS011;8078;47.822;9.402;2024-02-23T12:38:48;3.43;;;1.60;;
15958;SDS011;8078;47.822;9.402;2024-02-23T12:41:16;5.30;;;1.67;;
15958;SDS011;8078;47.822;9.402;2024-02-23T12:43:42;3.13;;;1.50;;
15958;SDS011;8078;47.822;9.402;2024-02-23T12:46:07;3.90;;;2.10;;
15958;SDS011;8078;47.822;9.402;2024-02-23T12:48:34;3.43;;;1.80;;
15958;SDS011;8078;47.822;9.402;2024-02-23T12:51:00;1.67;;;1.50;;
15958;SDS011;8078;47.822;9.402;2024-02-23T12:53:36;4.20;;;1.60;;
15958;SDS011;8078;47.822;9.402;2024-02-23T12:56:09;1.67;;;1.40;;
15958;SDS011;8078;47.822;9.402;2024-02-23T12:58:36;1.70;;;1.60;;
15958;SDS011;8078;47.822;9.402;2024-02-23T13:01:03;4.40;;;1.90;;
15958;SDS011;8078;47.822;9.402;2024-02-23T13:03:31;1.37;;;1.27;;
15958;SDS011;8078;47.822;9.402;2024-02-23T13:05:57;6.80;;;2.37;;
15958;SDS011;8078;47.822;9.402;2024-02-23T13:08:23;3.47;;;1.70;;
15958;SDS011;8078;47.822;9.402;2024-02-23T13:10:53;2.63;;;1.50;;
15958;SDS011;8078;47.822;9.402;2024-02-23T13:13:19;3.77;;;1.80;;
15958;SDS011;8078;47.822;9.402;2024-02-23T13:15:46;4.60;;;1.80;;
15958;SDS011;8078;47.822;9.402;2024-02-23T13:18:13;1.77;;;1.50;;
15958;SDS011;8078;47.822;9.402;2024-02-23T13:20:39;4.97;;;1.67;;
15958;SDS011;8078;47.822;9.402;2024-02-23T13:23:08;4.07;;;1.50;;
15958;SDS011;8078;47.822;9.402;2024-02-23T13:25:35;2.07;;;1.57;;
15958;SDS011;8078;47.822;9.402;2024-02-23T13:28:01;4.77;;;1.80;;
15958;SDS011;8078;47.822;9.402;2024-02-23T13:30:27;1.47;;;1.37;;
15958;SDS011;8078;47.822;9.402;2024-02-23T13:32:52;4.30;;;1.67;;
15958;SDS011;8078;47.822;9.402;2024-02-23T13:35:18;5.13;;;1.70;;
15958;SDS011;8078;47.822;9.402;2024-02-23T13:37:44;5.33;;;1.67;;
15958;SDS011;8078;47.822;9.402;2024-02-23T13:40:10;3.20;;;1.70;;
15958;SDS011;8078;47.822;9.402;2024-02-23T13:42:36;1.77;;;1.43;;
15958;SDS011;8078;47.822;9.402;2024-02-23T13:45:06;3.07;;;1.57;;
15958;SDS011;8078;47.822;9.402;2024-02-23T13:47:32;4.47;;;1.73;;
15958;SDS011;8078;47.822;9.402;2024-02-23T13:49:58;5.67;;;2.10;;
15958;SDS011;8078;47.822;9.402;2024-02-23T13:52:23;3.57;;;1.80;;
15958;SDS011;8078;47.822;9.402;2024-02-23T13:54:49;4.67;;;1.60;;
15958;SDS011;8078;47.822;9.402;2024-02-23T13:57:15;3.90;;;1.40;;
15958;SDS011;8078;47.822;9.402;2024-02-23T13:59:40;3.90;;;1.93;;
15958;SDS011;8078;47.822;9.402;2024-02-23T14:02:06;2.43;;;1.73;;
15958;SDS011;8078;47.822;9.402;2024-02-23T14:04:32;3.13;;;1.60;;
15958;SDS011;8078;47.822;9.402;2024-02-23T14:06:58;2.23;;;1.90;;
15958;SDS011;8078;47.822;9.402;2024-02-23T14:09:23;4.83;;;1.70;;
15958;SDS011;8078;47.822;9.402;2024-02-23T14:11:49;4.33;;;1.63;;
15958;SDS011;8078;47.822;9.402;2024-02-23T14:14:14;4.77;;;1.57;;
15958;SDS011;8078;47.822;9.402;2024-02-23T14:16:41;2.73;;;1.63;;
15958;SDS011;8078;47.822;9.402;2024-02-23T14:19:07;5.70;;;1.60;;
15958;SDS011;8078;47.822;9.402;2024-02-23T14:21:32;2.50;;;1.80;;
15958;SDS011;8078;47.822;9.402;2024-02-23T14:23:58;1.83;;;1.60;;
15958;SDS011;8078;47.822;9.402;2024-02-23T14:26:24;1.70;;;1.60;;
15958;SDS011;8078;47.822;9.402;2024-02-23T14:28:50;3.40;;;1.60;;
15958;SDS011;8078;47.822;9.402;2024-02-23T14:31:16;2.57;;;1.70;;
15958;SDS011;8078;47.822;9.402;2024-02-23T14:33:41;4.40;;;2.10;;
15958;SDS011;8078;47.822;9.402;2024-02-23T14:36:07;5.50;;;1.70;;
15958;SDS011;8078;47.822;9.402;2024-02-23T14:38:32;2.13;;;1.77;;
15958;SDS011;8078;47.822;9.402;2024-02-23T14:40:58;2.87;;;1.73;;
15958;SDS011;8078;47.822;9.402;2024-02-23T14:43:24;4.50;;;1.50;;
15958;SDS011;8078;47.822;9.402;2024-02-23T14:45:49;4.13;;;2.13;;
15958;SDS011;8078;47.822;9.402;2024-02-23T14:48:17;4.47;;;1.60;;
15958;SDS011;8078;47.822;9.402;2024-02-23T14:50:43;2.87;;;1.53;;
15958;SDS011;8078;47.822;9.402;2024-02-23T14:53:09;3.37;;;1.60;;
15958;SDS011;8078;47.822;9.402;2024-02-23T14:55:36;2.63;;;1.30;;